sensor_id;sensor_type;location;lat;lon;timestamp;pressure;altitude;pressure_sealevel;temperature;humidity
61573;BME280;47465;43.094;12.434;2024-02-15T00:01:39;99574.84;;;5.12;100.00
61573;BME280;47465;43.094;12.434;2024-02-15T00:04:06;99586.28;;;5.14;100.00
61573;BME280;47465;43.094;12.434;2024-02-15T00:06:33;99585.41;;;5.17;100.00
61573;BME280;47465;43.094;12.434;2024-02-15T00:09:00;99566.03;;;5.10;100.00
61573;BME280;47465;43.094;12.434;2024-02-15T00:11:26;99589.78;;;5.13;100.00
61573;BME280;47465;43.094;12.434;2024-02-15T00:13:52;99538.63;;;4.91;100.00
61573;BME280;47465;43.094;12.434;2024-02-15T00:16:18;99587.16;;;5.15;100.00
61573;BME280;47465;43.094;12.434;2024-02-15T00:18:45;99559.97;;;5.27;100.00
61573;BME280;47465;43.094;12.434;2024-02-15T00:21:11;99583.88;;;5.53;100.00
61573;BME280;47465;43.094;12.434;2024-02-15T00:23:41;99560.19;;;5.58;100.00
61573;BME280;47465;43.094;12.434;2024-02-15T00:26:06;99574.38;;;5.81;100.00
61573;BME280;47465;43.094;12.434;2024-02-15T00:28:32;99577.03;;;5.87;100.00
61573;BME280;47465;43.094;12.434;2024-02-15T00:31:00;99487.09;;;5.38;100.00
61573;BME280;47465;43.094;12.434;2024-02-15T00:33:26;99571.81;;;5.93;100.00
61573;BME280;47465;43.094;12.434;2024-02-15T00:35:52;99547.16;;;5.88;100.00
61573;BME280;47465;43.094;12.434;2024-02-15T00:38:18;99548.13;;;6.09;100.00
61573;BME280;47465;43.094;12.434;2024-02-15T00:40:46;99571.13;;;6.42;100.00
61573;BME280;47465;43.094;12.434;2024-02-15T00:43:16;99521.75;;;6.12;100.00
61573;BME280;47465;43.094;12.434;2024-02-15T00:45:42;99477.53;;;5.60;100.00
61573;BME280;47465;43.094;12.434;2024-02-15T00:48:08;99540.09;;;5.92;100.00
61573;BME280;47465;43.094;12.434;2024-02-15T00:50:35;99503.91;;;5.59;100.00
61573;BME280;47465;43.094;12.434;2024-02-15T00:53:01;99553.25;;;5.78;100.00
61573;BME280;47465;43.094;12.434;2024-02-15T00:55:27;99480.00;;;5.28;100.00
61573;BME280;47465;43.094;12.434;2024-02-15T00:57:55;99544.25;;;5.41;100.00
61573;BME280;47465;43.094;12.434;2024-02-15T01:00:21;99453.38;;;4.82;100.00
61573;BME280;47465;43.094;12.434;2024-02-15T01:02:47;99551.22;;;5.28;100.00
61573;BME280;47465;43.094;12.434;2024-02-15T01:05:13;99503.50;;;4.94;100.00
61573;BME280;47465;43.094;12.434;2024-02-15T01:07:46;99532.50;;;4.94;100.00
61573;BME280;47465;43.094;12.434;2024-02-15T01:10:14;99482.13;;;4.57;100.00
61573;BME280;47465;43.094;12.434;2024-02-15T01:12:40;99490.94;;;4.56;100.00
61573;BME280;47465;43.094;12.434;2024-02-15T01:15:08;99552.66;;;4.87;100.00
61573;BME280;47465;43.094;12.434;2024-02-15T01:17:35;99514.59;;;4.53;100.00
61573;BME280;47465;43.094;12.434;2024-02-15T01:20:01;99563.97;;;4.76;100.00
61573;BME280;47465;43.094;12.434;2024-02-15T01:22:28;99470.47;;;4.27;100.00
61573;BME280;47465;43.094;12.434;2024-02-15T01:24:57;99505.59;;;4.29;100.00
61573;BME280;47465;43.094;12.434;2024-02-15T01:27:23;99555.03;;;4.60;100.00
61573;BME280;47465;43.094;12.434;2024-02-15T01:29:49;99477.34;;;4.13;100.00
61573;BME280;47465;43.094;12.434;2024-02-15T01:32:17;99547.88;;;4.45;100.00
61573;BME280;47465;43.094;12.434;2024-02-15T01:34:43;99560.38;;;4.66;100.00
61573;BME280;47465;43.094;12.434;2024-02-15T01:37:08;99556.00;;;4.66;100.00
61573;BME280;47465;43.094;12.434;2024-02-15T01:39:35;99553.28;;;4.62;100.00
61573;BME280;47465;43.094;12.434;2024-02-15T01:42:00;99565.56;;;4.57;100.00
61573;BME280;47465;43.094;12.434;2024-02-15T01:44:28;99470.03;;;3.86;100.00
61573;BME280;47465;43.094;12.434;2024-02-15T01:46:54;99541.50;;;4.21;100.00
61573;BME280;47465;43.094;12.434;2024-02-15T01:49:22;99477.16;;;3.96;100.00
61573;BME280;47465;43.094;12.434;2024-02-15T01:51:49;99468.28;;;3.88;100.00
61573;BME280;47465;43.094;12.434;2024-02-15T01:54:16;99516.13;;;4.28;100.00
61573;BME280;47465;43.094;12.434;2024-02-15T01:56:43;99549.66;;;4.47;100.00
61573;BME280;47465;43.094;12.434;2024-02-15T01:59:10;99521.59;;;4.51;100.00
61573;BME280;47465;43.094;12.434;2024-02-15T02:01:37;99517.31;;;4.61;100.00
61573;BME280;47465;43.094;12.434;2024-02-15T02:04:04;99481.28;;;4.58;100.00
61573;BME280;47465;43.094;12.434;2024-02-15T02:06:32;99521.00;;;4.83;100.00
61573;BME280;47465;43.094;12.434;2024-02-15T02:08:58;99466.25;;;4.48;100.00
61573;BME280;47465;43.094;12.434;2024-02-15T02:11:24;99449.53;;;4.38;100.00
61573;BME280;47465;43.094;12.434;2024-02-15T02:13:51;99538.63;;;4.88;100.00
61573;BME280;47465;43.094;12.434;2024-02-15T02:16:27;99489.25;;;4.64;100.00
61573;BME280;47465;43.094;12.434;2024-02-15T02:18:54;99489.19;;;4.58;100.00
61573;BME280;47465;43.094;12.434;2024-02-15T02:21:21;99447.72;;;4.36;100.00
61573;BME280;47465;43.094;12.434;2024-02-15T02:23:52;99535.84;;;4.74;100.00
61573;BME280;47465;43.094;12.434;2024-02-15T02:26:20;99541.09;;;4.68;100.00
61573;BME280;47465;43.094;12.434;2024-02-15T02:28:47;99519.03;;;4.56;100.00
61573;BME280;47465;43.094;12.434;2024-02-15T02:31:13;99434.19;;;3.96;100.00
61573;BME280;47465;43.094;12.434;2024-02-15T02:33:39;99481.88;;;4.26;100.00
61573;BME280;47465;43.094;12.434;2024-02-15T02:36:06;99517.28;;;4.59;100.00
61573;BME280;47465;43.094;12.434;2024-02-15T02:38:35;99536.75;;;4.73;100.00
61573;BME280;47465;43.094;12.434;2024-02-15T02:41:03;99452.78;;;4.14;100.00
61573;BME280;47465;43.094;12.434;2024-02-15T02:43:31;99436.09;;;4.10;100.00
61573;BME280;47465;43.094;12.434;2024-02-15T02:45:57;99510.13;;;4.46;100.00
61573;BME280;47465;43.094;12.434;2024-02-15T02:48:23;99523.28;;;4.44;100.00
61573;BME280;47465;43.094;12.434;2024-02-15T02:50:49;99475.53;;;4.06;100.00
61573;BME280;47465;43.094;12.434;2024-02-15T02:53:15;99460.44;;;3.89;100.00
61573;BME280;47465;43.094;12.434;2024-02-15T02:55:42;99463.13;;;3.96;100.00
61573;BME280;47465;43.094;12.434;2024-02-15T02:58:08;99545.16;;;4.34;100.00
61573;BME280;47465;43.094;12.434;2024-02-15T03:00:36;99527.47;;;4.24;100.00
61573;BME280;47465;43.094;12.434;2024-02-15T03:03:03;99485.06;;;3.96;100.00
61573;BME280;47465;43.094;12.434;2024-02-15T03:05:31;99534.59;;;4.32;100.00
61573;BME280;47465;43.094;12.434;2024-02-15T03:07:57;99473.63;;;3.94;100.00
61573;BME280;47465;43.094;12.434;2024-02-15T03:10:29;99500.13;;;4.08;100.00
61573;BME280;47465;43.094;12.434;2024-02-15T03:12:55;99518.63;;;4.17;100.00
61573;BME280;47465;43.094;12.434;2024-02-15T03:15:22;99457.88;;;3.96;100.00
61573;BME280;47465;43.094;12.434;2024-02-15T03:17:50;99534.78;;;4.52;100.00
61573;BME280;47465;43.094;12.434;2024-02-15T03:20:17;99528.56;;;4.43;100.00
61573;BME280;47465;43.094;12.434;2024-02-15T03:22:51;99465.81;;;4.03;100.00
61573;BME280;47465;43.094;12.434;2024-02-15T03:25:18;99471.09;;;4.02;100.00
61573;BME280;47465;43.094;12.434;2024-02-15T03:27:44;99548.59;;;4.31;100.00
61573;BME280;47465;43.094;12.434;2024-02-15T03:30:10;99539.50;;;4.00;100.00
61573;BME280;47465;43.094;12.434;2024-02-15T03:32:36;99456.44;;;3.49;100.00
61573;BME280;47465;43.094;12.434;2024-02-15T03:35:04;99497.19;;;3.82;100.00
61573;BME280;47465;43.094;12.434;2024-02-15T03:37:31;99482.19;;;3.73;100.00
61573;BME280;47465;43.094;12.434;2024-02-15T03:39:59;99457.28;;;3.46;100.00
61573;BME280;47465;43.094;12.434;2024-02-15T03:42:25;99537.63;;;3.90;100.00
61573;BME280;47465;43.094;12.434;2024-02-15T03:44:51;99522.50;;;3.72;100.00
61573;BME280;47465;43.094;12.434;2024-02-15T03:47:20;99533.00;;;3.72;100.00
61573;BME280;47465;43.094;12.434;2024-02-15T03:49:46;99542.75;;;3.79;100.00
61573;BME280;47465;43.094;12.434;2024-02-15T03:52:13;99494.56;;;3.16;100.00
61573;BME280;47465;43.094;12.434;2024-02-15T03:54:39;99515.75;;;3.27;100.00
61573;BME280;47465;43.094;12.434;2024-02-15T03:57:08;99428.41;;;2.84;100.00
61573;BME280;47465;43.094;12.434;2024-02-15T03:59:36;99428.56;;;2.95;100.00
61573;BME280;47465;43.094;12.434;2024-02-15T04:02:03;99508.19;;;3.50;100.00
61573;BME280;47465;43.094;12.434;2024-02-15T04:04:34;99456.94;;;3.19;100.00
61573;BME280;47465;43.094;12.434;2024-02-15T04:07:02;99464.09;;;3.27;100.00
61573;BME280;47465;43.094;12.434;2024-02-15T04:09:30;99444.66;;;3.18;100.00
61573;BME280;47465;43.094;12.434;2024-02-15T04:11:56;99484.31;;;3.35;100.00
61573;BME280;47465;43.094;12.434;2024-02-15T04:14:22;99521.34;;;3.50;100.00
61573;BME280;47465;43.094;12.434;2024-02-15T04:16:49;99514.28;;;3.49;100.00
61573;BME280;47465;43.094;12.434;2024-02-15T04:19:15;99523.91;;;3.47;100.00
61573;BME280;47465;43.094;12.434;2024-02-15T04:21:41;99514.31;;;3.50;100.00
61573;BME280;47465;43.094;12.434;2024-02-15T04:24:09;99522.28;;;3.55;100.00
61573;BME280;47465;43.094;12.434;2024-02-15T04:26:37;99533.84;;;3.68;100.00
61573;BME280;47465;43.094;12.434;2024-02-15T04:29:03;99523.13;;;3.53;100.00
61573;BME280;47465;43.094;12.434;2024-02-15T04:31:29;99542.53;;;3.64;100.00
61573;BME280;47465;43.094;12.434;2024-02-15T04:33:57;99445.31;;;3.00;100.00
61573;BME280;47465;43.094;12.434;2024-02-15T04:36:24;99467.16;;;2.97;100.00
61573;BME280;47465;43.094;12.434;2024-02-15T04:38:57;99536.00;;;3.33;100.00
61573;BME280;47465;43.094;12.434;2024-02-15T04:41:27;99483.09;;;3.09;100.00
61573;BME280;47465;43.094;12.434;2024-02-15T04:43:54;99507.75;;;3.18;100.00
61573;BME280;47465;43.094;12.434;2024-02-15T04:46:20;99451.97;;;2.76;100.00
61573;BME280;47465;43.094;12.434;2024-02-15T04:48:47;99529.72;;;3.23;100.00
61573;BME280;47465;43.094;12.434;2024-02-15T04:51:15;99532.28;;;3.18;100.00
61573;BME280;47465;43.094;12.434;2024-02-15T04:53:43;99529.53;;;3.11;100.00
61573;BME280;47465;43.094;12.434;2024-02-15T04:56:09;99543.81;;;3.29;100.00
61573;BME280;47465;43.094;12.434;2024-02-15T04:58:39;99545.56;;;3.27;100.00
61573;BME280;47465;43.094;12.434;2024-02-15T05:01:15;99481.94;;;2.91;100.00
61573;BME280;47465;43.094;12.434;2024-02-15T05:03:42;99491.63;;;2.93;100.00
61573;BME280;47465;43.094;12.434;2024-02-15T05:06:08;99515.59;;;3.15;100.00
61573;BME280;47465;43.094;12.434;2024-02-15T05:08:34;99537.75;;;3.32;100.00
61573;BME280;47465;43.094;12.434;2024-02-15T05:11:08;99521.59;;;3.07;100.00
61573;BME280;47465;43.094;12.434;2024-02-15T05:13:38;99488.66;;;2.72;100.00
61573;BME280;47465;43.094;12.434;2024-02-15T05:16:05;99524.88;;;2.91;100.00
61573;BME280;47465;43.094;12.434;2024-02-15T05:18:35;99543.44;;;3.03;100.00
61573;BME280;47465;43.094;12.434;2024-02-15T05:21:01;99462.06;;;2.50;100.00
61573;BME280;47465;43.094;12.434;2024-02-15T05:23:29;99485.28;;;2.80;100.00
61573;BME280;47465;43.094;12.434;2024-02-15T05:25:55;99500.09;;;2.77;100.00
61573;BME280;47465;43.094;12.434;2024-02-15T05:28:22;99548.69;;;3.02;100.00
61573;BME280;47465;43.094;12.434;2024-02-15T05:31:09;99533.66;;;2.93;100.00
61573;BME280;47465;43.094;12.434;2024-02-15T05:33:38;99549.53;;;2.99;100.00
61573;BME280;47465;43.094;12.434;2024-02-15T05:36:10;99530.28;;;3.03;100.00
61573;BME280;47465;43.094;12.434;2024-02-15T05:38:36;99537.00;;;2.83;100.00
61573;BME280;47465;43.094;12.434;2024-02-15T05:41:02;99540.63;;;2.91;100.00
61573;BME280;47465;43.094;12.434;2024-02-15T05:43:28;99474.19;;;2.43;100.00
61573;BME280;47465;43.094;12.434;2024-02-15T05:45:56;99536.78;;;2.71;100.00
61573;BME280;47465;43.094;12.434;2024-02-15T05:48:24;99545.56;;;2.73;100.00
61573;BME280;47465;43.094;12.434;2024-02-15T05:50:52;99541.13;;;2.68;100.00
61573;BME280;47465;43.094;12.434;2024-02-15T05:53:20;99551.00;;;2.83;100.00
61573;BME280;47465;43.094;12.434;2024-02-15T05:55:46;99547.47;;;2.81;100.00
61573;BME280;47465;43.094;12.434;2024-02-15T05:58:15;99508.44;;;2.51;100.00
61573;BME280;47465;43.094;12.434;2024-02-15T06:00:41;99565.88;;;2.83;100.00
61573;BME280;47465;43.094;12.434;2024-02-15T06:03:09;99505.81;;;2.51;100.00
61573;BME280;47465;43.094;12.434;2024-02-15T06:05:35;99498.59;;;2.38;100.00
61573;BME280;47465;43.094;12.434;2024-02-15T06:08:04;99518.03;;;2.49;100.00
61573;BME280;47465;43.094;12.434;2024-02-15T06:10:30;99558.66;;;2.70;100.00
61573;BME280;47465;43.094;12.434;2024-02-15T06:12:56;99533.00;;;2.55;100.00
61573;BME280;47465;43.094;12.434;2024-02-15T06:15:24;99485.44;;;2.36;100.00
61573;BME280;47465;43.094;12.434;2024-02-15T06:17:50;99483.72;;;2.37;100.00
61573;BME280;47465;43.094;12.434;2024-02-15T06:20:16;99487.28;;;2.42;100.00
61573;BME280;47465;43.094;12.434;2024-02-15T06:22:43;99582.47;;;2.82;100.00
61573;BME280;47465;43.094;12.434;2024-02-15T06:25:10;99593.81;;;2.78;100.00
61573;BME280;47465;43.094;12.434;2024-02-15T06:27:37;99587.66;;;2.77;100.00
61573;BME280;47465;43.094;12.434;2024-02-15T06:30:07;99595.53;;;2.77;100.00
61573;BME280;47465;43.094;12.434;2024-02-15T06:33:11;99597.50;;;2.89;100.00
61573;BME280;47465;43.094;12.434;2024-02-15T06:36:04;99593.28;;;2.99;100.00
61573;BME280;47465;43.094;12.434;2024-02-15T06:49:52;99561.41;;;2.76;100.00
61573;BME280;47465;43.094;12.434;2024-02-15T06:52:20;99526.09;;;2.58;100.00
61573;BME280;47465;43.094;12.434;2024-02-15T06:54:46;99515.66;;;2.64;100.00
61573;BME280;47465;43.094;12.434;2024-02-15T06:57:12;99527.19;;;2.73;100.00
61573;BME280;47465;43.094;12.434;2024-02-15T06:59:38;99619.94;;;3.22;100.00
61573;BME280;47465;43.094;12.434;2024-02-15T07:02:05;99571.59;;;3.11;100.00
61573;BME280;47465;43.094;12.434;2024-02-15T07:04:33;99509.75;;;2.76;100.00
61573;BME280;47465;43.094;12.434;2024-02-15T07:07:01;99564.63;;;3.14;100.00
61573;BME280;47465;43.094;12.434;2024-02-15T07:09:28;99504.84;;;3.01;100.00
61573;BME280;47465;43.094;12.434;2024-02-15T07:11:54;99603.09;;;3.68;100.00
61573;BME280;47465;43.094;12.434;2024-02-15T07:14:20;99585.59;;;3.69;100.00
61573;BME280;47465;43.094;12.434;2024-02-15T07:16:47;99583.03;;;3.75;100.00
61573;BME280;47465;43.094;12.434;2024-02-15T07:19:13;99508.97;;;3.44;100.00
61573;BME280;47465;43.094;12.434;2024-02-15T07:21:42;99506.50;;;3.54;100.00
61573;BME280;47465;43.094;12.434;2024-02-15T07:24:14;99602.81;;;4.14;100.00
61573;BME280;47465;43.094;12.434;2024-02-15T07:26:40;99603.03;;;4.31;100.00
61573;BME280;47465;43.094;12.434;2024-02-15T07:29:06;99514.84;;;3.92;100.00
61573;BME280;47465;43.094;12.434;2024-02-15T07:31:33;99532.66;;;4.15;100.00
61573;BME280;47465;43.094;12.434;2024-02-15T07:34:00;99545.97;;;4.31;100.00
61573;BME280;47465;43.094;12.434;2024-02-15T07:36:26;99497.50;;;4.11;100.00
61573;BME280;47465;43.094;12.434;2024-02-15T07:38:53;99581.47;;;4.67;100.00
61573;BME280;47465;43.094;12.434;2024-02-15T07:41:21;99601.03;;;4.92;100.00
61573;BME280;47465;43.094;12.434;2024-02-15T07:43:48;99522.56;;;4.58;100.00
61573;BME280;47465;43.094;12.434;2024-02-15T07:46:15;99578.28;;;5.07;100.00
61573;BME280;47465;43.094;12.434;2024-02-15T07:48:42;99588.22;;;5.43;100.00
61573;BME280;47465;43.094;12.434;2024-02-15T07:51:12;99551.22;;;5.29;100.00
61573;BME280;47465;43.094;12.434;2024-02-15T07:53:38;99495.78;;;5.22;100.00
61573;BME280;47465;43.094;12.434;2024-02-15T07:56:06;99555.84;;;5.69;100.00
61573;BME280;47465;43.094;12.434;2024-02-15T07:58:34;99491.47;;;5.34;100.00
61573;BME280;47465;43.094;12.434;2024-02-15T08:08:13;99571.19;;;6.64;100.00
61573;BME280;47465;43.094;12.434;2024-02-15T08:10:57;99500.66;;;6.27;100.00
61573;BME280;47465;43.094;12.434;2024-02-15T08:13:38;99572.97;;;6.92;100.00
61573;BME280;47465;43.094;12.434;2024-02-15T08:16:05;99524.50;;;6.86;100.00
61573;BME280;47465;43.094;12.434;2024-02-15T08:18:52;99574.72;;;7.41;100.00
61573;BME280;47465;43.094;12.434;2024-02-15T08:21:25;99538.56;;;7.28;100.00
61573;BME280;47465;43.094;12.434;2024-02-15T08:24:04;99531.50;;;7.34;100.00
61573;BME280;47465;43.094;12.434;2024-02-15T08:26:44;99569.38;;;7.69;100.00
61573;BME280;47465;43.094;12.434;2024-02-15T08:29:19;99488.34;;;6.89;100.00
61573;BME280;47465;43.094;12.434;2024-02-15T08:31:48;99496.28;;;6.80;100.00
61573;BME280;47465;43.094;12.434;2024-02-15T08:34:14;99490.09;;;7.10;100.00
61573;BME280;47465;43.094;12.434;2024-02-15T08:36:41;99586.09;;;7.86;100.00
61573;BME280;47465;43.094;12.434;2024-02-15T08:39:07;99579.03;;;7.82;100.00
61573;BME280;47465;43.094;12.434;2024-02-15T08:41:37;99581.63;;;7.97;100.00
61573;BME280;47465;43.094;12.434;2024-02-15T08:44:04;99496.25;;;7.22;100.00
61573;BME280;47465;43.094;12.434;2024-02-15T08:46:36;99486.50;;;7.44;100.00
61573;BME280;47465;43.094;12.434;2024-02-15T08:49:02;99567.50;;;8.01;100.00
61573;BME280;47465;43.094;12.434;2024-02-15T08:51:29;99585.03;;;8.27;99.95
61573;BME280;47465;43.094;12.434;2024-02-15T08:53:56;99494.25;;;7.91;96.25
61573;BME280;47465;43.094;12.434;2024-02-15T08:56:28;99554.09;;;8.32;96.41
61573;BME280;47465;43.094;12.434;2024-02-15T08:59:18;99556.75;;;8.32;95.99
61573;BME280;47465;43.094;12.434;2024-02-15T09:01:50;99577.97;;;8.29;95.39
61573;BME280;47465;43.094;12.434;2024-02-15T09:04:17;99579.84;;;8.07;96.97
61573;BME280;47465;43.094;12.434;2024-02-15T09:06:53;99481.97;;;7.75;95.99
61573;BME280;47465;43.094;12.434;2024-02-15T09:09:28;99574.28;;;8.64;94.27
61573;BME280;47465;43.094;12.434;2024-02-15T09:12:10;99492.16;;;8.52;92.56
61573;BME280;47465;43.094;12.434;2024-02-15T09:14:44;99515.69;;;8.96;90.69
61573;BME280;47465;43.094;12.434;2024-02-15T09:17:15;99569.16;;;9.49;90.26
61573;BME280;47465;43.094;12.434;2024-02-15T09:19:41;99481.97;;;9.08;88.01
61573;BME280;47465;43.094;12.434;2024-02-15T09:22:08;99538.09;;;9.57;88.66
61573;BME280;47465;43.094;12.434;2024-02-15T09:24:34;99544.06;;;9.78;87.29
61573;BME280;47465;43.094;12.434;2024-02-15T09:27:00;99568.56;;;10.03;84.58
61573;BME280;47465;43.094;12.434;2024-02-15T09:29:27;99485.06;;;9.53;83.82
61573;BME280;47465;43.094;12.434;2024-02-15T09:31:55;99523.66;;;9.83;84.89
61573;BME280;47465;43.094;12.434;2024-02-15T09:34:23;99558.69;;;10.13;84.17
61573;BME280;47465;43.094;12.434;2024-02-15T09:36:49;99473.31;;;9.71;83.75
61573;BME280;47465;43.094;12.434;2024-02-15T09:39:15;99563.75;;;10.37;84.53
61573;BME280;47465;43.094;12.434;2024-02-15T09:41:43;99557.41;;;10.47;82.87
61573;BME280;47465;43.094;12.434;2024-02-15T09:44:10;99541.34;;;10.54;84.17
61573;BME280;47465;43.094;12.434;2024-02-15T09:46:38;99545.66;;;10.62;81.84
61573;BME280;47465;43.094;12.434;2024-02-15T09:49:08;99530.47;;;10.69;82.53
61573;BME280;47465;43.094;12.434;2024-02-15T09:51:37;99536.47;;;10.83;82.61
61573;BME280;47465;43.094;12.434;2024-02-15T09:54:04;99543.16;;;11.07;82.49
61573;BME280;47465;43.094;12.434;2024-02-15T09:56:40;99482.56;;;10.72;80.09
61573;BME280;47465;43.094;12.434;2024-02-15T09:59:07;99498.34;;;10.83;80.76
61573;BME280;47465;43.094;12.434;2024-02-15T10:01:34;99453.41;;;10.66;80.31
61573;BME280;47465;43.094;12.434;2024-02-15T10:04:05;99457.59;;;10.79;80.10
61573;BME280;47465;43.094;12.434;2024-02-15T10:06:33;99543.47;;;11.42;79.97
61573;BME280;47465;43.094;12.434;2024-02-15T10:09:25;99454.56;;;11.01;78.62
61573;BME280;47465;43.094;12.434;2024-02-15T10:11:58;99538.72;;;11.58;78.83
61573;BME280;47465;43.094;12.434;2024-02-15T10:14:25;99525.19;;;11.68;78.15
61573;BME280;47465;43.094;12.434;2024-02-15T10:16:52;99482.94;;;11.51;77.76
61573;BME280;47465;43.094;12.434;2024-02-15T10:19:20;99523.47;;;11.67;76.10
61573;BME280;47465;43.094;12.434;2024-02-15T10:21:53;99500.31;;;11.71;77.51
61573;BME280;47465;43.094;12.434;2024-02-15T10:24:22;99526.59;;;11.91;75.97
61573;BME280;47465;43.094;12.434;2024-02-15T10:27:00;99433.34;;;11.44;74.78
61573;BME280;47465;43.094;12.434;2024-02-15T10:29:27;99451.75;;;11.57;74.34
61573;BME280;47465;43.094;12.434;2024-02-15T10:31:54;99429.16;;;11.33;74.64
61573;BME280;47465;43.094;12.434;2024-02-15T10:34:20;99506.81;;;12.01;73.92
61573;BME280;47465;43.094;12.434;2024-02-15T10:36:46;99453.34;;;11.65;72.50
61573;BME280;47465;43.094;12.434;2024-02-15T10:39:13;99479.97;;;11.65;71.91
61573;BME280;47465;43.094;12.434;2024-02-15T10:41:44;99466.91;;;11.53;71.56
61573;BME280;47465;43.094;12.434;2024-02-15T10:44:15;99448.25;;;11.53;70.26
61573;BME280;47465;43.094;12.434;2024-02-15T10:46:43;99427.88;;;11.50;70.53
61573;BME280;47465;43.094;12.434;2024-02-15T10:49:10;99419.03;;;11.50;70.53
61573;BME280;47465;43.094;12.434;2024-02-15T10:51:39;99450.44;;;11.78;70.87
61573;BME280;47465;43.094;12.434;2024-02-15T10:54:12;99473.28;;;11.91;70.50
61573;BME280;47465;43.094;12.434;2024-02-15T10:56:43;99490.56;;;12.12;70.93
61573;BME280;47465;43.094;12.434;2024-02-15T10:59:18;99426.63;;;11.68;70.50
61573;BME280;47465;43.094;12.434;2024-02-15T11:01:49;99496.09;;;12.04;71.30
61573;BME280;47465;43.094;12.434;2024-02-15T11:04:20;99403.59;;;11.66;71.98
61573;BME280;47465;43.094;12.434;2024-02-15T11:06:50;99396.34;;;11.72;72.53
61573;BME280;47465;43.094;12.434;2024-02-15T11:09:17;99464.56;;;12.23;71.34
61573;BME280;47465;43.094;12.434;2024-02-15T11:11:43;99401.41;;;11.86;72.42
61573;BME280;47465;43.094;12.434;2024-02-15T11:14:28;99469.19;;;12.17;74.05
61573;BME280;47465;43.094;12.434;2024-02-15T11:16:55;99477.19;;;12.17;73.66
61573;BME280;47465;43.094;12.434;2024-02-15T11:19:40;99392.97;;;11.64;75.47
61573;BME280;47465;43.094;12.434;2024-02-15T11:22:08;99395.44;;;11.74;75.52
61573;BME280;47465;43.094;12.434;2024-02-15T11:24:37;99472.66;;;12.19;75.75
61573;BME280;47465;43.094;12.434;2024-02-15T11:27:10;99451.59;;;12.08;76.42
61573;BME280;47465;43.094;12.434;2024-02-15T11:29:51;99370.44;;;11.79;75.67
61573;BME280;47465;43.094;12.434;2024-02-15T11:32:37;99424.75;;;12.16;74.92
61573;BME280;47465;43.094;12.434;2024-02-15T11:35:06;99355.19;;;11.86;74.66
61573;BME280;47465;43.094;12.434;2024-02-15T11:37:56;99357.75;;;11.92;74.56
61573;BME280;47465;43.094;12.434;2024-02-15T11:40:25;99331.03;;;11.95;72.15
61573;BME280;47465;43.094;12.434;2024-02-15T11:42:53;99400.06;;;12.45;73.60
61573;BME280;47465;43.094;12.434;2024-02-15T11:45:22;99415.97;;;12.48;73.50
61573;BME280;47465;43.094;12.434;2024-02-15T11:47:49;99423.72;;;12.59;73.93
61573;BME280;47465;43.094;12.434;2024-02-15T11:50:17;99346.25;;;12.27;74.68
61573;BME280;47465;43.094;12.434;2024-02-15T11:52:43;99400.66;;;12.56;73.10
61573;BME280;47465;43.094;12.434;2024-02-15T11:55:10;99354.28;;;12.27;71.81
61573;BME280;47465;43.094;12.434;2024-02-15T11:57:37;99359.72;;;12.57;69.77
61573;BME280;47465;43.094;12.434;2024-02-15T12:00:24;99382.28;;;12.80;71.58
61573;BME280;47465;43.094;12.434;2024-02-15T12:03:25;99375.75;;;12.90;71.63
61573;BME280;47465;43.094;12.434;2024-02-15T12:06:33;99372.09;;;12.94;71.68
61573;BME280;47465;43.094;12.434;2024-02-15T12:09:34;99367.03;;;12.83;70.00
61573;BME280;47465;43.094;12.434;2024-02-15T12:12:33;99318.56;;;12.67;70.17
61573;BME280;47465;43.094;12.434;2024-02-15T12:15:35;99307.59;;;12.78;71.46
61573;BME280;47465;43.094;12.434;2024-02-15T12:18:41;99299.53;;;12.80;70.52
61573;BME280;47465;43.094;12.434;2024-02-15T12:21:22;99346.91;;;13.04;68.64
61573;BME280;47465;43.094;12.434;2024-02-15T12:23:51;99344.06;;;13.10;69.08
61573;BME280;47465;43.094;12.434;2024-02-15T12:26:19;99298.53;;;12.84;69.22
61573;BME280;47465;43.094;12.434;2024-02-15T12:28:50;99279.06;;;12.80;68.49
61573;BME280;47465;43.094;12.434;2024-02-15T12:31:17;99325.97;;;13.20;68.28
61573;BME280;47465;43.094;12.434;2024-02-15T12:33:47;99278.09;;;12.83;67.45
61573;BME280;47465;43.094;12.434;2024-02-15T12:36:24;99337.06;;;13.38;66.86
61573;BME280;47465;43.094;12.434;2024-02-15T12:38:59;99245.72;;;12.95;67.15
61573;BME280;47465;43.094;12.434;2024-02-15T12:41:25;99242.91;;;13.00;68.07
61573;BME280;47465;43.094;12.434;2024-02-15T12:43:52;99308.28;;;13.49;66.97
61573;BME280;47465;43.094;12.434;2024-02-15T12:46:19;99266.91;;;13.32;65.66
61573;BME280;47465;43.094;12.434;2024-02-15T12:48:46;99248.19;;;13.32;65.89
61573;BME280;47465;43.094;12.434;2024-02-15T12:51:16;99275.66;;;13.66;66.66
61573;BME280;47465;43.094;12.434;2024-02-15T12:53:42;99273.88;;;13.66;67.04
61573;BME280;47465;43.094;12.434;2024-02-15T12:56:08;99248.16;;;13.62;66.76
61573;BME280;47465;43.094;12.434;2024-02-15T12:58:38;99296.00;;;13.98;66.69
61573;BME280;47465;43.094;12.434;2024-02-15T13:01:06;99221.59;;;13.58;66.47
61573;BME280;47465;43.094;12.434;2024-02-15T13:03:35;99211.78;;;13.58;65.34
61573;BME280;47465;43.094;12.434;2024-02-15T13:06:04;99274.47;;;14.03;65.52
61573;BME280;47465;43.094;12.434;2024-02-15T13:08:30;99280.88;;;14.25;63.97
61573;BME280;47465;43.094;12.434;2024-02-15T13:10:57;99192.25;;;13.83;62.66
61573;BME280;47465;43.094;12.434;2024-02-15T13:13:24;99201.81;;;13.90;63.28
61573;BME280;47465;43.094;12.434;2024-02-15T13:15:50;99270.91;;;14.29;64.42
61573;BME280;47465;43.094;12.434;2024-02-15T13:18:21;99272.06;;;14.22;62.99
61573;BME280;47465;43.094;12.434;2024-02-15T13:20:47;99196.56;;;13.87;63.74